Terminal Aerodrome Forecast
Issued by NWS

Home | Current Version | Previous Version | Text Only | Print | Product List | Glossary On
Versions: 1 2 3 4 5 6 7 8 9 10 11 12 13 14 15 16 17 18
379
FTUS43 KDVN 241737
TAFBRL
TAF
KBRL 241737Z 2418/2518 23010KT P6SM SCT100 BKN250
     FM242300 29006KT P6SM SCT040 BKN200
     FM250700 36006KT P6SM SCT250=

USA.gov is the U.S. government's official web portal to all federal, state and local government web resources and services.